Time;durP1;ratioP1;P1;durP2;ratioP2;P2;SDS_P1;SDS_P2;PMS_P1;PMS_P2;Temp;Humidity;BMP_temperature;BMP_pressure;BME280_temperature;BME280_humidity;BME280_pressure;Samples;Min_cycle;Max_cycle;Signal;HPM_P1;HPM_P2
2021/03/31 00:02:09;;;;;;;7.95;7.25;;;;;;;;;;5030456;28;20126;-44
2021/03/31 00:04:36;;;;;;;8.00;7.07;;;;;;;;;;5025168;28;20064;-42
2021/03/31 00:07:06;;;;;;;8.10;7.35;;;;;;;;;;5030345;28;20056;-48
2021/03/31 00:09:32;;;;;;;8.20;7.60;;;;;;;;;;5027153;28;20042;-46
2021/03/31 00:11:59;;;;;;;6.50;6.00;;;;;;;;;;5023192;28;20478;-44
2021/03/31 00:14:25;;;;;;;6.40;5.88;;;;;;;;;;5030510;28;20489;-43
2021/03/31 00:16:51;;;;;;;4.43;4.28;;;;;;;;;;5024341;28;20437;-42
2021/03/31 00:19:18;;;;;;;5.03;4.60;;;;;;;;;;5028187;28;20120;-44
2021/03/31 00:21:45;;;;;;;4.75;4.55;;;;;;;;;;5028308;28;20037;-45
2021/03/31 00:24:11;;;;;;;5.70;5.22;;;;;;;;;;5023847;28;20033;-43
2021/03/31 00:26:38;;;;;;;6.82;6.35;;;;;;;;;;5031059;28;20037;-43
2021/03/31 00:29:04;;;;;;;6.55;6.15;;;;;;;;;;5026923;28;20041;-45
2021/03/31 00:31:30;;;;;;;8.45;7.78;;;;;;;;;;5026568;28;20700;-42
2021/03/31 00:33:56;;;;;;;13.15;12.75;;;;;;;;;;5027684;28;20317;-43
2021/03/31 00:36:23;;;;;;;17.25;16.17;;;;;;;;;;5023762;28;20077;-45
2021/03/31 00:38:49;;;;;;;14.32;13.60;;;;;;;;;;5031381;28;20069;-43
2021/03/31 00:41:16;;;;;;;14.88;14.13;;;;;;;;;;5023873;28;20040;-43
2021/03/31 00:43:42;;;;;;;14.75;13.93;;;;;;;;;;5028683;28;20091;-43
2021/03/31 00:46:09;;;;;;;14.68;14.13;;;;;;;;;;5027849;28;20041;-44
2021/03/31 00:48:35;;;;;;;11.40;11.10;;;;;;;;;;5024102;28;20037;-47
2021/03/31 00:51:03;;;;;;;15.88;15.48;;;;;;;;;;5029506;28;20041;-43
2021/03/31 00:53:36;;;;;;;15.00;14.40;;;;;;;;;;5024990;28;20382;-44
2021/03/31 00:56:03;;;;;;;13.20;12.80;;;;;;;;;;5025221;28;20134;-45
2021/03/31 00:58:30;;;;;;;13.85;13.35;;;;;;;;;;5016952;28;20049;-44
2021/03/31 01:00:57;;;;;;;16.33;15.55;;;;;;;;;;5023230;28;20046;-47
2021/03/31 01:03:23;;;;;;;14.43;13.85;;;;;;;;;;5029593;28;20046;-44
2021/03/31 01:05:49;;;;;;;16.08;15.18;;;;;;;;;;5015407;28;20030;-44
2021/03/31 01:08:16;;;;;;;16.83;16.20;;;;;;;;;;5019430;28;20034;-46
2021/03/31 01:10:46;;;;;;;16.10;15.25;;;;;;;;;;5029795;28;20033;-43
2021/03/31 01:13:31;;;;;;;15.82;15.25;;;;;;;;;;5023217;28;20045;-47
2021/03/31 01:16:13;;;;;;;13.77;13.40;;;;;;;;;;5027952;28;20048;-44
2021/03/31 01:18:39;;;;;;;17.63;17.02;;;;;;;;;;5029094;28;20037;-44
2021/03/31 01:21:15;;;;;;;20.70;19.83;;;;;;;;;;5021730;28;20041;-43
2021/03/31 01:23:41;;;;;;;18.60;17.30;;;;;;;;;;5028665;28;20152;-43
2021/03/31 01:26:10;;;;;;;19.10;18.00;;;;;;;;;;5021575;28;20073;-43
2021/03/31 01:28:56;;;;;;;17.42;16.77;;;;;;;;;;5016848;28;20042;-43
2021/03/31 01:31:31;;;;;;;16.92;16.42;;;;;;;;;;5013996;28;20080;-44
2021/03/31 01:33:57;;;;;;;16.73;16.13;;;;;;;;;;5024952;28;20088;-46
2021/03/31 01:36:24;;;;;;;14.20;13.70;;;;;;;;;;5024078;28;20038;-46
2021/03/31 01:38:57;;;;;;;13.65;13.05;;;;;;;;;;5028558;28;20112;-44
2021/03/31 01:41:24;;;;;;;6.55;6.35;;;;;;;;;;5023026;28;20088;-45
2021/03/31 01:43:52;;;;;;;5.50;5.28;;;;;;;;;;5025313;28;20109;-44
2021/03/31 01:46:19;;;;;;;4.70;4.60;;;;;;;;;;5024416;28;20091;-43
2021/03/31 01:48:45;;;;;;;4.60;4.50;;;;;;;;;;5024006;28;20045;-45
2021/03/31 01:51:12;;;;;;;6.25;5.82;;;;;;;;;;5028810;28;20397;-43
2021/03/31 01:53:38;;;;;;;6.05;5.75;;;;;;;;;;5022841;28;20050;-44
2021/03/31 01:56:05;;;;;;;8.73;8.35;;;;;;;;;;5027266;28;20050;-46
2021/03/31 01:58:33;;;;;;;11.13;10.63;;;;;;;;;;5022644;28;20643;-44
2021/03/31 02:01:00;;;;;;;12.77;12.40;;;;;;;;;;5021246;28;20046;-46
2021/03/31 02:03:29;;;;;;;15.88;15.38;;;;;;;;;;5030545;28;20053;-45
2021/03/31 02:05:55;;;;;;;18.92;17.48;;;;;;;;;;5022959;28;20786;-45
2021/03/31 02:08:23;;;;;;;14.75;14.30;;;;;;;;;;5027466;28;20397;-43
2021/03/31 02:10:50;;;;;;;16.88;16.42;;;;;;;;;;5016836;28;20587;-42
2021/03/31 02:13:17;;;;;;;16.17;15.70;;;;;;;;;;5022488;28;21429;-43
2021/03/31 02:15:43;;;;;;;16.95;16.20;;;;;;;;;;5029420;28;20117;-43
2021/03/31 02:18:15;;;;;;;14.85;14.55;;;;;;;;;;5023838;28;20437;-44
2021/03/31 02:20:41;;;;;;;17.13;16.42;;;;;;;;;;5027066;28;20061;-44
2021/03/31 02:23:09;;;;;;;15.68;15.18;;;;;;;;;;5041885;28;20448;-43
2021/03/31 02:25:35;;;;;;;15.15;14.65;;;;;;;;;;5023932;28;20052;-43
2021/03/31 02:28:02;;;;;;;15.00;14.50;;;;;;;;;;5026766;28;20092;-42
2021/03/31 02:30:28;;;;;;;16.48;16.00;;;;;;;;;;5027696;28;20046;-46
2021/03/31 02:32:57;;;;;;;20.00;18.67;;;;;;;;;;5026822;28;20801;-43
2021/03/31 02:35:24;;;;;;;19.98;19.33;;;;;;;;;;5032720;28;20049;-46
2021/03/31 02:37:56;;;;;;;17.98;17.33;;;;;;;;;;5022428;28;20107;-44
2021/03/31 02:40:22;;;;;;;17.88;17.38;;;;;;;;;;5021900;28;20037;-43
2021/03/31 02:42:49;;;;;;;19.33;18.40;;;;;;;;;;5027782;28;20124;-45
2021/03/31 02:45:18;;;;;;;20.25;19.35;;;;;;;;;;5026174;28;20046;-43
2021/03/31 02:47:44;;;;;;;20.38;19.42;;;;;;;;;;5032671;28;20073;-45
2021/03/31 02:50:11;;;;;;;18.98;18.45;;;;;;;;;;5021210;28;20068;-44
2021/03/31 02:52:39;;;;;;;19.17;18.67;;;;;;;;;;5018496;28;20045;-43
2021/03/31 02:55:09;;;;;;;20.05;19.42;;;;;;;;;;5028478;28;20041;-46
2021/03/31 02:57:36;;;;;;;19.08;18.38;;;;;;;;;;5041829;28;20438;-44
2021/03/31 03:00:07;;;;;;;17.67;17.17;;;;;;;;;;5032581;28;20095;-43
2021/03/31 03:02:35;;;;;;;21.13;20.45;;;;;;;;;;5026074;28;20050;-44
2021/03/31 03:05:01;;;;;;;18.95;18.45;;;;;;;;;;5028766;28;20091;-42
2021/03/31 03:07:28;;;;;;;19.42;18.88;;;;;;;;;;5029656;28;20045;-45
2021/03/31 03:09:54;;;;;;;19.88;18.92;;;;;;;;;;5025619;28;20045;-44
2021/03/31 03:12:21;;;;;;;17.85;17.35;;;;;;;;;;5031244;28;20026;-43
2021/03/31 03:14:48;;;;;;;19.15;18.33;;;;;;;;;;5024113;28;20585;-44
2021/03/31 03:17:15;;;;;;;18.35;17.95;;;;;;;;;;5018199;28;20056;-42
2021/03/31 03:19:41;;;;;;;17.83;17.33;;;;;;;;;;5029746;28;20037;-43
2021/03/31 03:22:09;;;;;;;13.15;13.05;;;;;;;;;;5024802;28;20037;-44
2021/03/31 03:24:35;;;;;;;13.10;12.60;;;;;;;;;;5031040;28;20041;-44
2021/03/31 03:27:02;;;;;;;15.27;15.00;;;;;;;;;;5017776;28;20132;-45
2021/03/31 03:29:29;;;;;;;17.20;16.88;;;;;;;;;;5017812;28;20041;-42
2021/03/31 03:31:55;;;;;;;17.10;16.70;;;;;;;;;;5032277;28;20049;-44
2021/03/31 03:34:22;;;;;;;16.35;15.90;;;;;;;;;;5023131;28;20149;-46
2021/03/31 03:36:49;;;;;;;14.73;14.43;;;;;;;;;;5029266;28;20513;-45
2021/03/31 03:39:16;;;;;;;11.57;11.30;;;;;;;;;;5027559;28;20539;-43
2021/03/31 03:41:43;;;;;;;11.95;11.48;;;;;;;;;;5028675;28;20061;-43
2021/03/31 03:44:10;;;;;;;14.88;14.05;;;;;;;;;;5029912;28;20029;-43
2021/03/31 03:46:36;;;;;;;11.52;11.13;;;;;;;;;;5025607;28;20146;-46
2021/03/31 03:49:04;;;;;;;14.85;14.40;;;;;;;;;;5029945;28;20033;-42
2021/03/31 03:51:31;;;;;;;17.88;16.98;;;;;;;;;;5027580;28;20540;-44
2021/03/31 03:53:57;;;;;;;19.05;18.42;;;;;;;;;;5023720;28;20036;-44
2021/03/31 03:56:24;;;;;;;17.75;16.95;;;;;;;;;;5031623;28;20034;-44
2021/03/31 03:58:50;;;;;;;19.55;18.60;;;;;;;;;;5025011;28;20095;-43
2021/03/31 04:01:17;;;;;;;20.63;19.67;;;;;;;;;;5027470;28;20584;-44
2021/03/31 04:03:43;;;;;;;20.50;19.80;;;;;;;;;;5030396;28;20485;-44
2021/03/31 04:06:09;;;;;;;16.70;16.02;;;;;;;;;;5024364;28;20046;-44
2021/03/31 04:08:36;;;;;;;21.50;20.30;;;;;;;;;;5031836;28;20045;-44
2021/03/31 04:11:04;;;;;;;19.15;18.55;;;;;;;;;;5025238;28;20276;-43
2021/03/31 04:13:30;;;;;;;20.08;19.38;;;;;;;;;;5028906;28;20034;-43
2021/03/31 04:16:05;;;;;;;19.88;19.30;;;;;;;;;;5028229;28;20041;-44
2021/03/31 04:18:32;;;;;;;19.45;18.95;;;;;;;;;;5024153;28;20500;-44
2021/03/31 04:20:59;;;;;;;20.42;19.80;;;;;;;;;;5030342;28;20045;-43
2021/03/31 04:23:26;;;;;;;19.38;18.83;;;;;;;;;;5023389;28;20061;-44
2021/03/31 04:25:54;;;;;;;19.40;18.63;;;;;;;;;;5025852;28;20037;-45
2021/03/31 04:28:21;;;;;;;19.52;18.70;;;;;;;;;;5029195;28;20033;-43
2021/03/31 04:30:47;;;;;;;20.75;20.08;;;;;;;;;;5025010;28;20065;-42
2021/03/31 04:33:14;;;;;;;17.58;16.95;;;;;;;;;;5029751;28;20866;-43
2021/03/31 04:35:41;;;;;;;17.92;17.30;;;;;;;;;;5026244;28;20099;-44
2021/03/31 04:38:12;;;;;;;20.85;19.95;;;;;;;;;;5024967;28;20038;-43
2021/03/31 04:40:41;;;;;;;20.08;19.20;;;;;;;;;;5030850;28;20103;-46
2021/03/31 04:43:08;;;;;;;19.95;19.23;;;;;;;;;;5027372;28;20049;-44
2021/03/31 04:45:34;;;;;;;20.98;20.38;;;;;;;;;;5025053;28;20043;-44
2021/03/31 04:48:01;;;;;;;20.27;19.33;;;;;;;;;;5026656;28;20046;-47
2021/03/31 04:50:29;;;;;;;18.77;18.23;;;;;;;;;;5020167;28;20065;-43
2021/03/31 04:52:57;;;;;;;22.00;21.10;;;;;;;;;;5012230;28;20041;-42
2021/03/31 04:55:23;;;;;;;21.40;20.70;;;;;;;;;;5017376;28;20045;-45
2021/03/31 04:57:49;;;;;;;20.55;19.88;;;;;;;;;;5021177;28;20054;-45
2021/03/31 05:00:16;;;;;;;18.80;18.13;;;;;;;;;;5024673;28;20037;-43
2021/03/31 05:02:42;;;;;;;19.08;18.70;;;;;;;;;;5023597;28;20045;-43
2021/03/31 05:05:09;;;;;;;16.15;15.95;;;;;;;;;;5013785;28;20702;-45
2021/03/31 05:07:35;;;;;;;18.65;18.20;;;;;;;;;;5020145;28;20048;-43
2021/03/31 05:10:02;;;;;;;17.90;17.48;;;;;;;;;;5026950;28;20453;-45
2021/03/31 05:12:28;;;;;;;17.58;17.25;;;;;;;;;;5018375;28;20038;-44
2021/03/31 05:14:56;;;;;;;17.15;16.90;;;;;;;;;;5023742;28;20497;-43
2021/03/31 05:17:23;;;;;;;20.45;19.90;;;;;;;;;;5014488;28;20049;-43
2021/03/31 05:19:49;;;;;;;18.77;18.45;;;;;;;;;;5015287;28;20046;-46
2021/03/31 05:22:15;;;;;;;18.40;17.90;;;;;;;;;;5029419;28;20030;-44
2021/03/31 05:24:42;;;;;;;19.50;19.10;;;;;;;;;;5015977;28;20037;-45
2021/03/31 05:27:08;;;;;;;19.92;19.63;;;;;;;;;;5024105;28;20049;-46
2021/03/31 05:29:34;;;;;;;20.50;19.85;;;;;;;;;;5026734;28;20513;-44
2021/03/31 05:32:02;;;;;;;18.73;18.27;;;;;;;;;;5021837;28;20065;-44
2021/03/31 05:34:28;;;;;;;19.50;18.98;;;;;;;;;;5028521;28;20038;-44
2021/03/31 05:36:55;;;;;;;19.95;19.38;;;;;;;;;;5021177;28;20170;-44
2021/03/31 05:39:22;;;;;;;19.08;18.63;;;;;;;;;;5028608;28;20401;-47
2021/03/31 05:41:48;;;;;;;19.90;19.40;;;;;;;;;;5021845;28;20041;-44
2021/03/31 05:44:15;;;;;;;18.38;18.08;;;;;;;;;;5023584;28;20029;-44
2021/03/31 05:46:42;;;;;;;17.50;17.10;;;;;;;;;;5029307;28;20049;-44
2021/03/31 05:49:09;;;;;;;16.75;16.38;;;;;;;;;;5020675;28;20069;-45
2021/03/31 05:51:35;;;;;;;14.27;13.63;;;;;;;;;;5019800;28;20041;-45
2021/03/31 05:54:02;;;;;;;11.15;10.95;;;;;;;;;;5017471;28;20065;-44
2021/03/31 05:56:31;;;;;;;6.80;6.28;;;;;;;;;;5025367;28;20045;-44
2021/03/31 05:59:01;;;;;;;5.05;4.70;;;;;;;;;;5026913;28;20049;-49
2021/03/31 06:01:27;;;;;;;4.25;4.05;;;;;;;;;;5026138;28;20056;-45
2021/03/31 06:03:57;;;;;;;5.63;5.43;;;;;;;;;;5019689;28;20092;-47
2021/03/31 06:06:23;;;;;;;7.38;6.85;;;;;;;;;;5024203;28;20041;-47
2021/03/31 06:08:50;;;;;;;13.18;12.68;;;;;;;;;;5028595;28;20045;-47
2021/03/31 06:11:18;;;;;;;9.32;9.05;;;;;;;;;;5029403;28;20049;-47
2021/03/31 06:13:48;;;;;;;5.32;5.22;;;;;;;;;;5024237;28;20052;-45
2021/03/31 06:16:32;;;;;;;3.00;2.90;;;;;;;;;;5014753;28;20048;-46
2021/03/31 06:19:18;;;;;;;2.38;2.38;;;;;;;;;;5019207;28;20171;-46
2021/03/31 06:22:00;;;;;;;2.28;2.17;;;;;;;;;;5018876;28;20045;-47
2021/03/31 06:24:33;;;;;;;2.20;2.20;;;;;;;;;;5032973;28;20053;-45
2021/03/31 06:27:00;;;;;;;2.53;2.42;;;;;;;;;;5018781;28;20037;-45
2021/03/31 06:29:35;;;;;;;2.50;2.42;;;;;;;;;;5018460;28;20041;-47
2021/03/31 06:32:12;;;;;;;3.75;1.80;;;;;;;;;;5026925;28;20033;-45
2021/03/31 06:34:49;;;;;;;2.70;2.60;;;;;;;;;;5020745;28;20036;-46
2021/03/31 06:37:22;;;;;;;2.20;2.10;;;;;;;;;;5030588;28;20545;-45
2021/03/31 06:39:51;;;;;;;3.37;3.00;;;;;;;;;;5021613;28;20045;-45
2021/03/31 06:42:20;;;;;;;61.15;27.10;;;;;;;;;;5027809;28;20296;-47
2021/03/31 06:47:26;;;;;;;55.42;30.38;;;;;;;;;;5022894;28;20046;-46
2021/03/31 06:49:53;;;;;;;8.75;8.15;;;;;;;;;;5026967;28;20455;-46
2021/03/31 06:52:19;;;;;;;7.47;6.72;;;;;;;;;;5025176;28;20060;-45
2021/03/31 06:54:50;;;;;;;9.57;9.00;;;;;;;;;;5028030;28;20077;-47
2021/03/31 06:57:25;;;;;;;9.70;9.10;;;;;;;;;;5030233;28;20037;-47
2021/03/31 06:59:58;;;;;;;3.47;2.78;;;;;;;;;;5022928;28;20029;-46
2021/03/31 07:02:25;;;;;;;7.88;7.32;;;;;;;;;;5024489;28;20038;-45
2021/03/31 07:04:53;;;;;;;3.33;3.15;;;;;;;;;;5027578;28;20045;-49
2021/03/31 07:07:28;;;;;;;4.03;3.72;;;;;;;;;;5027009;28;20034;-48
2021/03/31 07:10:02;;;;;;;3.10;2.90;;;;;;;;;;5030101;28;20044;-47
2021/03/31 07:12:35;;;;;;;4.30;4.05;;;;;;;;;;5022257;28;20125;-45
2021/03/31 07:15:02;;;;;;;;;;;;;;;;;;5025354;28;20571;-45
2021/03/31 07:17:28;;;;;;;3.25;3.15;;;;;;;;;;5025682;28;19931;-44
2021/03/31 07:19:56;;;;;;;5.05;3.75;;;;;;;;;;5026839;28;20048;-46
2021/03/31 07:22:22;;;;;;;5.97;2.90;;;;;;;;;;5028240;28;20402;-44
2021/03/31 07:24:49;;;;;;;2.17;1.83;;;;;;;;;;5021974;28;20107;-45
2021/03/31 07:27:18;;;;;;;3.45;3.13;;;;;;;;;;5020940;28;20125;-46
2021/03/31 07:32:33;;;;;;;4.03;2.25;;;;;;;;;;5024408;28;20125;-45
2021/03/31 07:35:01;;;;;;;6.55;3.30;;;;;;;;;;5015395;28;20034;-47
2021/03/31 07:37:31;;;;;;;1.58;1.42;;;;;;;;;;5020650;28;20049;-46
2021/03/31 07:40:00;;;;;;;3.13;2.92;;;;;;;;;;5029815;28;20521;-46
2021/03/31 07:42:27;;;;;;;3.35;2.42;;;;;;;;;;5025562;28;20520;-47
2021/03/31 07:44:54;;;;;;;4.55;4.22;;;;;;;;;;5024876;28;20411;-46
2021/03/31 07:47:21;;;;;;;2.92;2.45;;;;;;;;;;5017122;28;20049;-44
2021/03/31 07:49:48;;;;;;;3.00;2.70;;;;;;;;;;5019457;28;20550;-47
2021/03/31 07:52:14;;;;;;;1.80;1.80;;;;;;;;;;5032228;28;20034;-45
2021/03/31 07:54:40;;;;;;;3.28;2.78;;;;;;;;;;5023328;28;20064;-46
2021/03/31 07:57:26;;;;;;;2.40;2.30;;;;;;;;;;5017581;28;20037;-46
2021/03/31 07:59:53;;;;;;;3.78;2.97;;;;;;;;;;5028813;28;20041;-48
2021/03/31 08:02:23;;;;;;;4.90;2.90;;;;;;;;;;5020460;28;20490;-47
2021/03/31 08:04:49;;;;;;;6.43;2.53;;;;;;;;;;5014072;28;20485;-46
2021/03/31 08:07:22;;;;;;;2.03;1.92;;;;;;;;;;5016858;28;20516;-45
2021/03/31 08:09:49;;;;;;;1.30;1.20;;;;;;;;;;5025351;28;20038;-48
2021/03/31 08:12:29;;;;;;;0.95;0.95;;;;;;;;;;5022276;28;20049;-50
2021/03/31 08:14:56;;;;;;;4.10;1.20;;;;;;;;;;5021987;28;20103;-46
2021/03/31 08:17:42;;;;;;;1.75;0.90;;;;;;;;;;5023333;28;20080;-45
2021/03/31 08:20:09;;;;;;;3.38;1.65;;;;;;;;;;5024672;28;20156;-46
2021/03/31 08:22:37;;;;;;;1.02;0.90;;;;;;;;;;5024342;28;20045;-49
2021/03/31 08:25:19;;;;;;;0.80;0.80;;;;;;;;;;5025149;28;20165;-48
2021/03/31 08:27:55;;;;;;;1.00;1.00;;;;;;;;;;5021211;28;20048;-49
2021/03/31 08:30:24;;;;;;;5.45;1.00;;;;;;;;;;5027025;28;20120;-46
2021/03/31 08:32:50;;;;;;;3.45;1.27;;;;;;;;;;5025834;28;20136;-47
2021/03/31 08:35:17;;;;;;;1.67;0.93;;;;;;;;;;5022688;28;20046;-48
2021/03/31 08:37:47;;;;;;;2.00;1.52;;;;;;;;;;5023720;28;20046;-50
2021/03/31 08:40:14;;;;;;;1.88;1.20;;;;;;;;;;5021891;28;20046;-46
2021/03/31 08:43:01;;;;;;;0.85;0.85;;;;;;;;;;5025233;28;20173;-46
2021/03/31 08:45:30;;;;;;;1.88;1.05;;;;;;;;;;5016613;28;20049;-46
2021/03/31 08:47:58;;;;;;;4.90;0.93;;;;;;;;;;5017590;28;20052;-47
2021/03/31 08:50:26;;;;;;;3.38;0.90;;;;;;;;;;5030696;28;20036;-45
2021/03/31 08:52:59;;;;;;;1.25;1.25;;;;;;;;;;5021850;28;20045;-48
2021/03/31 08:55:29;;;;;;;1.23;0.90;;;;;;;;;;5025239;28;20042;-46
2021/03/31 08:57:55;;;;;;;2.20;0.90;;;;;;;;;;5014971;28;20046;-48
2021/03/31 09:00:22;;;;;;;2.25;1.00;;;;;;;;;;5015931;28;20049;-46
2021/03/31 09:02:48;;;;;;;2.50;1.00;;;;;;;;;;5019859;28;20049;-51
2021/03/31 09:05:15;;;;;;;1.52;0.80;;;;;;;;;;5021406;28;20041;-49
2021/03/31 09:07:41;;;;;;;0.90;0.90;;;;;;;;;;5028034;28;20100;-50
2021/03/31 09:10:11;;;;;;;0.80;0.80;;;;;;;;;;5016413;28;20379;-47
2021/03/31 09:12:37;;;;;;;4.65;2.75;;;;;;;;;;5015808;28;20041;-47
2021/03/31 09:15:04;;;;;;;2.72;2.17;;;;;;;;;;5015753;28;20070;-48
2021/03/31 09:17:32;;;;;;;1.42;1.05;;;;;;;;;;5022064;28;20524;-48
2021/03/31 09:20:00;;;;;;;1.90;0.88;;;;;;;;;;5027937;28;20076;-48
2021/03/31 09:22:29;;;;;;;2.03;1.60;;;;;;;;;;5013158;28;20585;-46
2021/03/31 09:24:59;;;;;;;4.15;0.82;;;;;;;;;;5014527;28;20040;-46
2021/03/31 09:27:46;;;;;;;1.13;0.90;;;;;;;;;;5013283;28;20049;-49
2021/03/31 09:30:14;;;;;;;1.08;0.98;;;;;;;;;;5018097;28;20040;-48
2021/03/31 09:33:06;;;;;;;1.98;1.10;;;;;;;;;;5024897;28;20038;-50
2021/03/31 09:35:34;;;;;;;;;;;;;;;;;;5030401;28;20042;-48
2021/03/31 09:38:02;;;;;;;0.80;0.75;;;;;;;;;;5024914;28;19921;-47
2021/03/31 09:40:37;;;;;;;1.70;0.85;;;;;;;;;;5021969;28;20069;-50
2021/03/31 09:43:24;;;;;;;0.88;0.88;;;;;;;;;;5021793;28;20037;-51
2021/03/31 09:45:53;;;;;;;1.33;0.70;;;;;;;;;;5024073;28;20096;-47
2021/03/31 09:48:20;;;;;;;1.08;0.80;;;;;;;;;;5030967;28;20041;-47
2021/03/31 09:50:47;;;;;;;4.90;0.80;;;;;;;;;;5023111;28;20062;-48
2021/03/31 09:53:14;;;;;;;0.75;0.75;;;;;;;;;;5021620;28;20040;-47
2021/03/31 09:55:41;;;;;;;1.55;0.65;;;;;;;;;;5026509;28;20493;-48
2021/03/31 09:58:08;;;;;;;1.45;0.90;;;;;;;;;;5023997;28;20137;-47
2021/03/31 10:00:35;;;;;;;0.70;0.70;;;;;;;;;;5025892;28;20488;-48
2021/03/31 10:03:04;;;;;;;2.70;0.70;;;;;;;;;;5024703;28;20053;-48
2021/03/31 10:05:31;;;;;;;1.90;0.70;;;;;;;;;;5029459;28;20556;-45
2021/03/31 10:08:02;;;;;;;1.42;0.77;;;;;;;;;;5023239;28;20043;-47
2021/03/31 10:10:42;;;;;;;1.15;0.70;;;;;;;;;;5022091;28;20389;-47
2021/03/31 10:13:08;;;;;;;1.30;0.60;;;;;;;;;;5025827;28;20477;-47
2021/03/31 10:15:35;;;;;;;0.60;0.60;;;;;;;;;;5020486;28;20087;-49
2021/03/31 10:18:04;;;;;;;0.82;0.70;;;;;;;;;;5023119;28;20091;-46
2021/03/31 10:20:32;;;;;;;2.55;1.23;;;;;;;;;;5019657;28;20042;-49
2021/03/31 10:22:59;;;;;;;0.60;0.60;;;;;;;;;;5020462;28;20037;-48
2021/03/31 10:25:44;;;;;;;0.68;0.68;;;;;;;;;;5023886;28;20038;-47
2021/03/31 10:28:37;;;;;;;1.17;0.60;;;;;;;;;;5020236;28;20044;-51
2021/03/31 10:31:25;;;;;;;5.03;0.65;;;;;;;;;;5024168;28;20311;-47
2021/03/31 10:34:13;;;;;;;1.27;0.60;;;;;;;;;;5026151;28;20050;-47
2021/03/31 10:36:47;;;;;;;0.60;0.60;;;;;;;;;;5024879;28;20060;-48
2021/03/31 10:50:04;;;;;;;1.50;0.50;;;;;;;;;;5021504;28;20048;-48
2021/03/31 10:52:36;;;;;;;1.05;0.50;;;;;;;;;;5026765;28;20042;-49
2021/03/31 10:55:03;;;;;;;0.60;0.60;;;;;;;;;;5025165;28;20042;-47
2021/03/31 10:57:29;;;;;;;0.60;0.60;;;;;;;;;;5025964;28;20041;-49
2021/03/31 10:59:55;;;;;;;0.95;0.50;;;;;;;;;;5024303;28;20093;-51
2021/03/31 11:02:21;;;;;;;0.60;0.60;;;;;;;;;;5023990;28;20069;-46
2021/03/31 11:04:48;;;;;;;0.60;0.60;;;;;;;;;;5028539;28;20042;-48
2021/03/31 11:07:14;;;;;;;1.85;0.60;;;;;;;;;;5023850;28;20083;-48
2021/03/31 11:09:43;;;;;;;0.50;0.50;;;;;;;;;;5027315;28;20463;-50
2021/03/31 11:12:10;;;;;;;0.68;0.52;;;;;;;;;;5029846;28;20092;-49
2021/03/31 11:14:36;;;;;;;1.38;0.50;;;;;;;;;;5024822;28;20073;-48
2021/03/31 11:17:06;;;;;;;1.85;0.50;;;;;;;;;;5022186;28;20084;-48
2021/03/31 11:27:35;;;;;;;1.85;0.50;;;;;;;;;;5022421;28;20071;-48
2021/03/31 11:30:03;;;;;;;1.00;0.60;;;;;;;;;;5031196;28;20030;-47
2021/03/31 11:32:30;;;;;;;0.57;0.57;;;;;;;;;;5025342;28;20425;-48
2021/03/31 11:34:56;;;;;;;0.50;0.50;;;;;;;;;;5026851;28;20065;-48
2021/03/31 11:37:22;;;;;;;0.50;0.50;;;;;;;;;;5028372;28;20033;-47
2021/03/31 11:39:49;;;;;;;1.65;0.70;;;;;;;;;;5022684;28;20128;-49
2021/03/31 11:42:15;;;;;;;0.68;0.57;;;;;;;;;;5022891;28;20421;-50
2021/03/31 11:44:42;;;;;;;1.40;0.50;;;;;;;;;;5021069;28;20099;-51
2021/03/31 11:47:08;;;;;;;2.63;0.50;;;;;;;;;;5026932;28;20062;-50
2021/03/31 11:49:35;;;;;;;0.50;0.50;;;;;;;;;;5020046;28;20362;-49
2021/03/31 11:52:01;;;;;;;0.50;0.50;;;;;;;;;;5023320;28;20125;-47
2021/03/31 11:54:28;;;;;;;1.30;0.50;;;;;;;;;;5013576;28;20481;-49
2021/03/31 11:56:56;;;;;;;1.50;0.50;;;;;;;;;;5017897;28;20382;-45
2021/03/31 11:59:23;;;;;;;1.45;1.05;;;;;;;;;;5022244;28;20037;-44
2021/03/31 12:01:49;;;;;;;1.02;0.50;;;;;;;;;;5026238;28;20486;-45
2021/03/31 12:04:16;;;;;;;1.35;0.40;;;;;;;;;;5021821;28;20061;-45
2021/03/31 12:06:43;;;;;;;0.65;0.65;;;;;;;;;;5029709;28;20404;-46
2021/03/31 12:09:10;;;;;;;0.50;0.50;;;;;;;;;;5016675;28;20030;-46
2021/03/31 12:11:37;;;;;;;0.55;0.50;;;;;;;;;;5019805;28;20473;-45
2021/03/31 12:14:04;;;;;;;0.43;0.43;;;;;;;;;;5024871;28;20056;-46
2021/03/31 12:16:30;;;;;;;0.98;0.43;;;;;;;;;;5024567;28;20034;-47
2021/03/31 12:18:58;;;;;;;1.70;0.50;;;;;;;;;;5028092;28;20087;-45
2021/03/31 12:21:25;;;;;;;0.60;0.50;;;;;;;;;;5016501;28;20203;-46
2021/03/31 12:23:51;;;;;;;3.80;0.50;;;;;;;;;;5027392;28;20034;-46
2021/03/31 12:26:19;;;;;;;2.38;0.50;;;;;;;;;;5024063;28;20045;-46
2021/03/31 12:28:51;;;;;;;0.40;0.40;;;;;;;;;;5023908;28;20050;-46
2021/03/31 12:31:18;;;;;;;0.50;0.43;;;;;;;;;;5013839;28;20050;-45
2021/03/31 12:33:44;;;;;;;1.35;0.50;;;;;;;;;;5020062;28;20046;-48
2021/03/31 12:36:10;;;;;;;1.23;0.50;;;;;;;;;;5015285;28;20053;-48
2021/03/31 12:38:37;;;;;;;1.20;0.40;;;;;;;;;;5019433;28;20037;-48
2021/03/31 12:41:04;;;;;;;0.45;0.38;;;;;;;;;;5023576;28;20042;-47
2021/03/31 12:43:30;;;;;;;0.77;0.50;;;;;;;;;;5025016;28;20029;-41
2021/03/31 12:45:57;;;;;;;0.57;0.40;;;;;;;;;;5022103;28;20042;-42
2021/03/31 12:48:23;;;;;;;0.30;0.30;;;;;;;;;;5012885;28;20038;-41
2021/03/31 12:50:56;;;;;;;0.40;0.40;;;;;;;;;;5022781;28;20038;-41
2021/03/31 12:53:34;;;;;;;1.42;0.32;;;;;;;;;;5026152;28;20402;-42
2021/03/31 12:56:02;;;;;;;1.35;0.77;;;;;;;;;;5022713;28;20077;-44
2021/03/31 12:58:28;;;;;;;0.40;0.40;;;;;;;;;;5021753;28;20045;-44
2021/03/31 13:01:00;;;;;;;0.90;0.40;;;;;;;;;;5013172;28;20491;-44
2021/03/31 13:03:47;;;;;;;0.40;0.40;;;;;;;;;;5022688;28;20041;-43
2021/03/31 13:06:13;;;;;;;0.80;0.40;;;;;;;;;;5024561;28;20491;-44
2021/03/31 13:09:00;;;;;;;0.98;0.30;;;;;;;;;;5028274;28;20050;-44
2021/03/31 13:11:46;;;;;;;2.40;0.40;;;;;;;;;;5021188;28;20041;-44
2021/03/31 13:17:08;;;;;;;1.25;0.40;;;;;;;;;;5027445;28;20045;-43
2021/03/31 13:23:14;;;;;;;0.40;0.40;;;;;;;;;;5023062;28;20359;-44
2021/03/31 13:25:51;;;;;;;1.55;0.30;;;;;;;;;;5028489;28;20041;-44
2021/03/31 13:33:51;;;;;;;1.35;0.40;;;;;;;;;;5029669;28;20496;-44
2021/03/31 13:36:21;;;;;;;0.40;0.40;;;;;;;;;;5017056;28;20072;-43
2021/03/31 13:41:14;;;;;;;3.13;0.63;;;;;;;;;;5022223;28;20095;-43
2021/03/31 13:43:43;;;;;;;0.73;0.40;;;;;;;;;;5022365;28;20497;-43
2021/03/31 13:46:09;;;;;;;0.57;0.50;;;;;;;;;;5013706;28;20037;-43
2021/03/31 13:49:04;;;;;;;1.90;0.50;;;;;;;;;;5020608;28;20044;-44
2021/03/31 13:52:03;;;;;;;0.82;0.40;;;;;;;;;;5015831;28;20054;-44
2021/03/31 13:55:00;;;;;;;1.55;0.50;;;;;;;;;;5011171;28;20061;-44
2021/03/31 13:57:27;;;;;;;0.40;0.40;;;;;;;;;;5020755;28;20073;-43
2021/03/31 13:59:55;;;;;;;0.43;0.40;;;;;;;;;;5025721;28;20352;-43
2021/03/31 14:02:22;;;;;;;1.25;0.50;;;;;;;;;;5015673;28;20898;-44
2021/03/31 14:05:08;;;;;;;0.85;0.40;;;;;;;;;;5017675;28;20493;-43
2021/03/31 14:07:56;;;;;;;0.40;0.40;;;;;;;;;;5027714;28;20429;-43
2021/03/31 14:10:43;;;;;;;0.50;0.50;;;;;;;;;;5014382;28;20038;-43
2021/03/31 14:13:09;;;;;;;0.40;0.40;;;;;;;;;;5017185;28;20402;-47
2021/03/31 14:15:56;;;;;;;1.42;0.50;;;;;;;;;;5019481;28;20103;-44
2021/03/31 14:18:23;;;;;;;0.40;0.40;;;;;;;;;;5021897;28;20084;-43
2021/03/31 14:20:50;;;;;;;0.40;0.40;;;;;;;;;;5023965;28;20033;-43
2021/03/31 14:23:16;;;;;;;0.70;0.40;;;;;;;;;;5016406;28;20410;-44
2021/03/31 14:25:43;;;;;;;0.50;0.43;;;;;;;;;;5021238;28;20033;-44
2021/03/31 14:28:29;;;;;;;1.08;0.40;;;;;;;;;;5020519;28;20126;-44
2021/03/31 14:30:58;;;;;;;0.75;0.40;;;;;;;;;;5022810;28;20055;-43
2021/03/31 14:33:45;;;;;;;1.05;0.40;;;;;;;;;;5025018;28;20045;-44
2021/03/31 14:36:31;;;;;;;1.25;0.40;;;;;;;;;;5018836;28;20140;-44
2021/03/31 14:39:18;;;;;;;0.75;0.40;;;;;;;;;;5026385;28;20033;-44
2021/03/31 14:42:05;;;;;;;3.08;0.50;;;;;;;;;;5018707;28;20046;-43
2021/03/31 14:44:32;;;;;;;0.85;0.40;;;;;;;;;;5023418;28;20124;-44
2021/03/31 14:47:18;;;;;;;1.85;0.50;;;;;;;;;;5022885;28;20052;-43
2021/03/31 14:50:06;;;;;;;0.75;0.57;;;;;;;;;;5027628;28;20053;-44
2021/03/31 15:00:32;;;;;;;0.40;0.40;;;;;;;;;;5025798;28;20509;-43
2021/03/31 15:03:00;;;;;;;0.75;0.47;;;;;;;;;;5024755;28;20041;-43
2021/03/31 15:05:26;;;;;;;0.68;0.50;;;;;;;;;;5032204;28;20478;-43
2021/03/31 15:07:53;;;;;;;0.75;0.50;;;;;;;;;;5019976;28;20041;-43
2021/03/31 15:10:19;;;;;;;1.65;0.40;;;;;;;;;;5020986;28;20033;-43
2021/03/31 15:13:05;;;;;;;0.60;0.50;;;;;;;;;;5022883;28;20092;-43
2021/03/31 15:15:52;;;;;;;0.82;0.50;;;;;;;;;;5024600;28;20037;-44
2021/03/31 15:18:39;;;;;;;0.60;0.40;;;;;;;;;;5014882;28;20586;-44
2021/03/31 15:21:17;;;;;;;2.42;0.50;;;;;;;;;;5017411;28;20034;-45
2021/03/31 15:24:04;;;;;;;1.30;0.57;;;;;;;;;;5020898;28;20042;-44
2021/03/31 15:26:30;;;;;;;5.07;0.50;;;;;;;;;;5032582;28;20453;-44
2021/03/31 15:28:57;;;;;;;1.38;0.50;;;;;;;;;;5023341;28;20543;-44
2021/03/31 15:31:44;;;;;;;1.65;0.50;;;;;;;;;;5026034;28;20095;-44
2021/03/31 15:34:15;;;;;;;4.03;0.50;;;;;;;;;;5018982;28;20038;-42
2021/03/31 15:36:46;;;;;;;1.08;0.60;;;;;;;;;;5022036;28;20124;-43